sensor_id;sensor_type;location;lat;lon;timestamp;temperature;humidity
17341;DHT22;8788;49.930;8.660;2022-08-19T04:04:10;21.80;99.90
17341;DHT22;8788;49.930;8.660;2022-08-19T04:06:41;21.80;99.90
17341;DHT22;8788;49.930;8.660;2022-08-19T04:09:10;21.80;99.90
17341;DHT22;8788;49.930;8.660;2022-08-19T04:11:39;21.80;99.90
17341;DHT22;8788;49.930;8.660;2022-08-19T04:14:08;21.70;99.90
17341;DHT22;8788;49.930;8.660;2022-08-19T04:16:37;21.70;99.90
17341;DHT22;8788;49.930;8.660;2022-08-19T04:19:04;21.70;99.90
17341;DHT22;8788;49.930;8.660;2022-08-19T04:21:34;21.70;99.90
17341;DHT22;8788;49.930;8.660;2022-08-19T04:24:01;21.70;99.90
17341;DHT22;8788;49.930;8.660;2022-08-19T04:26:31;21.60;99.90
17341;DHT22;8788;49.930;8.660;2022-08-19T04:28:59;21.70;99.90
17341;DHT22;8788;49.930;8.660;2022-08-19T04:31:30;21.70;99.90
17341;DHT22;8788;49.930;8.660;2022-08-19T04:33:59;21.70;99.90
17341;DHT22;8788;49.930;8.660;2022-08-19T04:36:29;21.70;99.90
17341;DHT22;8788;49.930;8.660;2022-08-19T04:39:02;21.70;99.90
17341;DHT22;8788;49.930;8.660;2022-08-19T04:41:29;21.70;99.90
17341;DHT22;8788;49.930;8.660;2022-08-19T04:44:14;21.80;99.90
17341;DHT22;8788;49.930;8.660;2022-08-19T04:46:44;21.80;99.90
17341;DHT22;8788;49.930;8.660;2022-08-19T04:49:11;21.80;99.90
17341;DHT22;8788;49.930;8.660;2022-08-19T04:51:40;21.80;99.90
17341;DHT22;8788;49.930;8.660;2022-08-19T04:54:09;21.80;99.90
17341;DHT22;8788;49.930;8.660;2022-08-19T04:56:36;21.80;99.90
17341;DHT22;8788;49.930;8.660;2022-08-19T04:59:03;21.80;99.90
17341;DHT22;8788;49.930;8.660;2022-08-19T05:01:32;21.80;99.90
17341;DHT22;8788;49.930;8.660;2022-08-19T05:04:02;21.80;99.90
17341;DHT22;8788;49.930;8.660;2022-08-19T05:06:31;21.80;99.90
17341;DHT22;8788;49.930;8.660;2022-08-19T05:08:59;21.90;99.90
17341;DHT22;8788;49.930;8.660;2022-08-19T05:11:30;21.80;99.90
17341;DHT22;8788;49.930;8.660;2022-08-19T05:13:57;21.80;99.90
17341;DHT22;8788;49.930;8.660;2022-08-19T05:16:25;21.80;99.90
17341;DHT22;8788;49.930;8.660;2022-08-19T05:18:53;21.80;99.90
17341;DHT22;8788;49.930;8.660;2022-08-19T05:21:40;21.80;99.90
17341;DHT22;8788;49.930;8.660;2022-08-19T05:24:25;21.90;99.90
17341;DHT22;8788;49.930;8.660;2022-08-19T05:26:55;21.80;99.90
17341;DHT22;8788;49.930;8.660;2022-08-19T05:29:26;21.90;99.90
17341;DHT22;8788;49.930;8.660;2022-08-19T05:31:54;21.80;99.90
17341;DHT22;8788;49.930;8.660;2022-08-19T05:34:23;21.80;99.90
17341;DHT22;8788;49.930;8.660;2022-08-19T05:36:53;21.80;99.90
17341;DHT22;8788;49.930;8.660;2022-08-19T05:39:24;21.90;99.90
17341;DHT22;8788;49.930;8.660;2022-08-19T05:41:55;21.90;99.90
17341;DHT22;8788;49.930;8.660;2022-08-19T05:44:23;21.80;99.90
17341;DHT22;8788;49.930;8.660;2022-08-19T05:46:51;21.70;99.90
17341;DHT22;8788;49.930;8.660;2022-08-19T05:49:22;21.60;99.90
17341;DHT22;8788;49.930;8.660;2022-08-19T05:51:50;21.60;99.90
17341;DHT22;8788;49.930;8.660;2022-08-19T05:54:18;21.60;99.90
17341;DHT22;8788;49.930;8.660;2022-08-19T05:56:46;21.60;99.90
17341;DHT22;8788;49.930;8.660;2022-08-19T05:59:16;21.70;99.90
17341;DHT22;8788;49.930;8.660;2022-08-19T06:01:45;21.60;99.90
17341;DHT22;8788;49.930;8.660;2022-08-19T06:04:17;21.60;99.90
17341;DHT22;8788;49.930;8.660;2022-08-19T06:06:45;21.80;99.90
17341;DHT22;8788;49.930;8.660;2022-08-19T06:09:13;21.90;99.90
17341;DHT22;8788;49.930;8.660;2022-08-19T06:11:42;22.00;99.90
17341;DHT22;8788;49.930;8.660;2022-08-19T06:14:12;22.10;99.90
17341;DHT22;8788;49.930;8.660;2022-08-19T06:16:42;22.30;99.90
17341;DHT22;8788;49.930;8.660;2022-08-19T06:19:12;22.30;99.90
17341;DHT22;8788;49.930;8.660;2022-08-19T06:21:41;22.40;99.90
17341;DHT22;8788;49.930;8.660;2022-08-19T06:24:10;22.40;99.90
17341;DHT22;8788;49.930;8.660;2022-08-19T06:26:40;22.50;99.90
17341;DHT22;8788;49.930;8.660;2022-08-19T06:29:10;22.50;99.90
17341;DHT22;8788;49.930;8.660;2022-08-19T06:31:43;22.60;99.90
17341;DHT22;8788;49.930;8.660;2022-08-19T06:34:11;22.70;99.90
17341;DHT22;8788;49.930;8.660;2022-08-19T06:36:41;22.80;99.90
17341;DHT22;8788;49.930;8.660;2022-08-19T06:39:12;22.90;99.90
17341;DHT22;8788;49.930;8.660;2022-08-19T06:41:41;22.90;99.90
17341;DHT22;8788;49.930;8.660;2022-08-19T06:44:16;23.00;99.90
17341;DHT22;8788;49.930;8.660;2022-08-19T06:46:45;23.00;99.90
17341;DHT22;8788;49.930;8.660;2022-08-19T06:49:13;23.00;99.90
17341;DHT22;8788;49.930;8.660;2022-08-19T06:51:41;23.00;99.90
17341;DHT22;8788;49.930;8.660;2022-08-19T06:54:09;23.10;99.90
17341;DHT22;8788;49.930;8.660;2022-08-19T06:56:37;23.10;99.90
17341;DHT22;8788;49.930;8.660;2022-08-19T06:59:07;23.20;99.90
17341;DHT22;8788;49.930;8.660;2022-08-19T07:01:36;23.20;99.90
17341;DHT22;8788;49.930;8.660;2022-08-19T07:04:06;23.30;99.90
17341;DHT22;8788;49.930;8.660;2022-08-19T07:06:35;23.40;99.90
17341;DHT22;8788;49.930;8.660;2022-08-19T07:09:03;23.40;99.90
17341;DHT22;8788;49.930;8.660;2022-08-19T07:11:31;23.40;99.90
17341;DHT22;8788;49.930;8.660;2022-08-19T07:13:59;23.40;99.90
17341;DHT22;8788;49.930;8.660;2022-08-19T07:16:26;23.50;99.90
17341;DHT22;8788;49.930;8.660;2022-08-19T07:18:54;23.50;99.90
17341;DHT22;8788;49.930;8.660;2022-08-19T07:21:26;23.50;99.90
17341;DHT22;8788;49.930;8.660;2022-08-19T07:23:55;23.60;99.90
17341;DHT22;8788;49.930;8.660;2022-08-19T07:26:24;23.60;99.90
17341;DHT22;8788;49.930;8.660;2022-08-19T07:28:51;23.60;99.90
17341;DHT22;8788;49.930;8.660;2022-08-19T07:31:20;23.70;99.90
17341;DHT22;8788;49.930;8.660;2022-08-19T07:33:50;23.80;99.90
17341;DHT22;8788;49.930;8.660;2022-08-19T07:36:20;23.90;99.90
17341;DHT22;8788;49.930;8.660;2022-08-19T07:38:50;23.90;99.90
17341;DHT22;8788;49.930;8.660;2022-08-19T07:41:21;24.00;99.90
17341;DHT22;8788;49.930;8.660;2022-08-19T07:43:50;24.00;99.90
17341;DHT22;8788;49.930;8.660;2022-08-19T07:46:18;24.10;99.90
17341;DHT22;8788;49.930;8.660;2022-08-19T07:48:47;24.30;99.90
17341;DHT22;8788;49.930;8.660;2022-08-19T07:51:18;24.30;99.90
17341;DHT22;8788;49.930;8.660;2022-08-19T07:53:45;24.30;99.90
17341;DHT22;8788;49.930;8.660;2022-08-19T07:56:15;24.40;99.90
17341;DHT22;8788;49.930;8.660;2022-08-19T07:58:44;24.50;99.90
17341;DHT22;8788;49.930;8.660;2022-08-19T08:01:13;24.50;99.90
17341;DHT22;8788;49.930;8.660;2022-08-19T08:03:41;24.60;99.90
17341;DHT22;8788;49.930;8.660;2022-08-19T08:06:26;24.70;99.90
17341;DHT22;8788;49.930;8.660;2022-08-19T08:09:14;24.80;99.90
17341;DHT22;8788;49.930;8.660;2022-08-19T08:11:50;24.80;99.90
17341;DHT22;8788;49.930;8.660;2022-08-19T08:14:21;24.90;99.90
17341;DHT22;8788;49.930;8.660;2022-08-19T08:16:50;24.90;99.90
17341;DHT22;8788;49.930;8.660;2022-08-19T08:19:19;25.00;99.90
17341;DHT22;8788;49.930;8.660;2022-08-19T08:21:47;25.10;99.90
17341;DHT22;8788;49.930;8.660;2022-08-19T08:24:14;25.20;99.90
17341;DHT22;8788;49.930;8.660;2022-08-19T08:26:43;25.30;99.90
17341;DHT22;8788;49.930;8.660;2022-08-19T08:29:12;25.30;99.90
17341;DHT22;8788;49.930;8.660;2022-08-19T08:31:40;25.30;99.90
17341;DHT22;8788;49.930;8.660;2022-08-19T08:34:08;25.30;99.90
17341;DHT22;8788;49.930;8.660;2022-08-19T08:36:36;25.30;99.90
17341;DHT22;8788;49.930;8.660;2022-08-19T08:39:06;25.30;99.90
17341;DHT22;8788;49.930;8.660;2022-08-19T08:41:39;25.30;99.90
17341;DHT22;8788;49.930;8.660;2022-08-19T08:44:15;25.40;99.90
17341;DHT22;8788;49.930;8.660;2022-08-19T08:46:47;25.50;99.90
17341;DHT22;8788;49.930;8.660;2022-08-19T08:49:25;25.60;99.90
17341;DHT22;8788;49.930;8.660;2022-08-19T08:51:58;25.70;99.90
17341;DHT22;8788;49.930;8.660;2022-08-19T08:54:33;25.90;99.90
17341;DHT22;8788;49.930;8.660;2022-08-19T08:57:04;26.10;99.90
17341;DHT22;8788;49.930;8.660;2022-08-19T08:59:38;26.30;99.90
17341;DHT22;8788;49.930;8.660;2022-08-19T09:02:06;26.50;99.90
17341;DHT22;8788;49.930;8.660;2022-08-19T09:04:34;26.50;99.90
17341;DHT22;8788;49.930;8.660;2022-08-19T09:07:16;26.60;99.90
17341;DHT22;8788;49.930;8.660;2022-08-19T09:09:48;26.60;99.70
17341;DHT22;8788;49.930;8.660;2022-08-19T09:12:21;26.60;99.50
17341;DHT22;8788;49.930;8.660;2022-08-19T09:14:54;26.80;99.50
17341;DHT22;8788;49.930;8.660;2022-08-19T09:17:27;26.80;99.00
17341;DHT22;8788;49.930;8.660;2022-08-19T09:19:59;26.80;98.70
17341;DHT22;8788;49.930;8.660;2022-08-19T09:22:30;26.90;98.50
17341;DHT22;8788;49.930;8.660;2022-08-19T09:24:57;26.90;98.30
17341;DHT22;8788;49.930;8.660;2022-08-19T09:27:25;26.90;98.40
17341;DHT22;8788;49.930;8.660;2022-08-19T09:29:55;26.80;97.90
17341;DHT22;8788;49.930;8.660;2022-08-19T09:32:22;26.60;98.60
17341;DHT22;8788;49.930;8.660;2022-08-19T09:34:50;26.60;98.60
17341;DHT22;8788;49.930;8.660;2022-08-19T09:37:20;26.50;98.20
17341;DHT22;8788;49.930;8.660;2022-08-19T09:39:48;26.40;98.10
17341;DHT22;8788;49.930;8.660;2022-08-19T09:42:15;26.30;98.30
17341;DHT22;8788;49.930;8.660;2022-08-19T09:44:42;26.20;98.50
17341;DHT22;8788;49.930;8.660;2022-08-19T09:47:12;26.30;98.70
17341;DHT22;8788;49.930;8.660;2022-08-19T09:49:42;26.50;98.80
17341;DHT22;8788;49.930;8.660;2022-08-19T09:52:10;26.60;98.20
17341;DHT22;8788;49.930;8.660;2022-08-19T09:54:38;26.60;98.20
17341;DHT22;8788;49.930;8.660;2022-08-19T09:57:05;26.60;98.20
17341;DHT22;8788;49.930;8.660;2022-08-19T09:59:33;26.50;98.30
17341;DHT22;8788;49.930;8.660;2022-08-19T10:02:00;26.50;98.30
17341;DHT22;8788;49.930;8.660;2022-08-19T10:04:29;26.50;98.30
17341;DHT22;8788;49.930;8.660;2022-08-19T10:07:10;26.60;98.30
17341;DHT22;8788;49.930;8.660;2022-08-19T10:09:37;26.70;98.30
17341;DHT22;8788;49.930;8.660;2022-08-19T10:12:07;26.80;98.20
17341;DHT22;8788;49.930;8.660;2022-08-19T10:14:34;26.90;98.00
17341;DHT22;8788;49.930;8.660;2022-08-19T10:17:02;27.00;98.20
17341;DHT22;8788;49.930;8.660;2022-08-19T10:19:30;27.20;97.80
17341;DHT22;8788;49.930;8.660;2022-08-19T10:22:03;27.20;97.40
17341;DHT22;8788;49.930;8.660;2022-08-19T10:24:31;27.10;97.40
17341;DHT22;8788;49.930;8.660;2022-08-19T10:27:00;27.10;97.40
17341;DHT22;8788;49.930;8.660;2022-08-19T10:29:29;27.10;96.50
17341;DHT22;8788;49.930;8.660;2022-08-19T10:31:57;27.00;96.30
17341;DHT22;8788;49.930;8.660;2022-08-19T10:34:26;26.90;96.30
17341;DHT22;8788;49.930;8.660;2022-08-19T10:36:55;26.90;96.40
17341;DHT22;8788;49.930;8.660;2022-08-19T10:39:23;27.10;96.50
17341;DHT22;8788;49.930;8.660;2022-08-19T10:41:50;27.30;96.40
17341;DHT22;8788;49.930;8.660;2022-08-19T10:44:17;27.30;96.30
17341;DHT22;8788;49.930;8.660;2022-08-19T10:46:46;27.30;96.10
17341;DHT22;8788;49.930;8.660;2022-08-19T10:49:13;27.40;95.80
17341;DHT22;8788;49.930;8.660;2022-08-19T10:51:41;27.50;95.40
17341;DHT22;8788;49.930;8.660;2022-08-19T10:54:27;27.70;95.40
17341;DHT22;8788;49.930;8.660;2022-08-19T10:57:08;27.90;95.30
17341;DHT22;8788;49.930;8.660;2022-08-19T10:59:36;28.00;94.90
17341;DHT22;8788;49.930;8.660;2022-08-19T11:02:05;28.10;94.20
17341;DHT22;8788;49.930;8.660;2022-08-19T11:04:32;28.00;93.40
17341;DHT22;8788;49.930;8.660;2022-08-19T11:07:00;27.90;93.30
17341;DHT22;8788;49.930;8.660;2022-08-19T11:09:29;28.00;93.10
17341;DHT22;8788;49.930;8.660;2022-08-19T11:11:56;28.00;92.50
17341;DHT22;8788;49.930;8.660;2022-08-19T11:14:24;28.10;92.30
17341;DHT22;8788;49.930;8.660;2022-08-19T11:16:52;28.20;91.60
17341;DHT22;8788;49.930;8.660;2022-08-19T11:19:21;28.30;91.30
17341;DHT22;8788;49.930;8.660;2022-08-19T11:21:50;28.40;91.00
17341;DHT22;8788;49.930;8.660;2022-08-19T11:24:19;28.50;90.60
17341;DHT22;8788;49.930;8.660;2022-08-19T11:26:50;28.50;90.40
17341;DHT22;8788;49.930;8.660;2022-08-19T11:29:19;28.70;90.50
17341;DHT22;8788;49.930;8.660;2022-08-19T11:31:49;28.90;90.60
17341;DHT22;8788;49.930;8.660;2022-08-19T11:34:19;28.90;90.10
17341;DHT22;8788;49.930;8.660;2022-08-19T11:36:48;28.80;90.20
17341;DHT22;8788;49.930;8.660;2022-08-19T11:39:17;28.80;90.40
17341;DHT22;8788;49.930;8.660;2022-08-19T11:41:45;28.90;89.70
17341;DHT22;8788;49.930;8.660;2022-08-19T11:44:14;29.00;89.00
17341;DHT22;8788;49.930;8.660;2022-08-19T11:46:43;29.00;87.90
17341;DHT22;8788;49.930;8.660;2022-08-19T11:49:12;29.10;87.40
17341;DHT22;8788;49.930;8.660;2022-08-19T11:51:40;29.10;85.50
17341;DHT22;8788;49.930;8.660;2022-08-19T11:54:09;29.20;86.90
17341;DHT22;8788;49.930;8.660;2022-08-19T11:56:37;29.40;85.50
17341;DHT22;8788;49.930;8.660;2022-08-19T11:59:05;29.50;85.60
17341;DHT22;8788;49.930;8.660;2022-08-19T12:01:34;29.60;85.70
17341;DHT22;8788;49.930;8.660;2022-08-19T12:04:02;29.70;84.40
17341;DHT22;8788;49.930;8.660;2022-08-19T12:06:31;29.60;84.30
17341;DHT22;8788;49.930;8.660;2022-08-19T12:09:01;29.50;84.10
17341;DHT22;8788;49.930;8.660;2022-08-19T12:11:29;29.50;83.00
17341;DHT22;8788;49.930;8.660;2022-08-19T12:13:56;29.70;83.00
17341;DHT22;8788;49.930;8.660;2022-08-19T12:16:27;29.80;82.60
17341;DHT22;8788;49.930;8.660;2022-08-19T12:18:57;29.90;82.10
17341;DHT22;8788;49.930;8.660;2022-08-19T12:21:29;30.00;81.00
17341;DHT22;8788;49.930;8.660;2022-08-19T12:23:58;29.80;79.10
17341;DHT22;8788;49.930;8.660;2022-08-19T12:26:27;29.50;79.10
17341;DHT22;8788;49.930;8.660;2022-08-19T12:28:55;29.30;79.70
17341;DHT22;8788;49.930;8.660;2022-08-19T12:31:22;29.30;79.50
17341;DHT22;8788;49.930;8.660;2022-08-19T12:33:49;29.30;78.90
17341;DHT22;8788;49.930;8.660;2022-08-19T12:36:19;29.40;77.30
17341;DHT22;8788;49.930;8.660;2022-08-19T12:38:47;29.20;77.00
17341;DHT22;8788;49.930;8.660;2022-08-19T12:41:16;29.20;77.20
17341;DHT22;8788;49.930;8.660;2022-08-19T12:43:44;29.30;77.00
17341;DHT22;8788;49.930;8.660;2022-08-19T12:46:14;29.30;75.90
17341;DHT22;8788;49.930;8.660;2022-08-19T12:48:41;29.20;75.40
17341;DHT22;8788;49.930;8.660;2022-08-19T12:51:13;29.20;76.60
17341;DHT22;8788;49.930;8.660;2022-08-19T12:53:42;29.40;76.70
17341;DHT22;8788;49.930;8.660;2022-08-19T12:56:11;29.70;76.60
17341;DHT22;8788;49.930;8.660;2022-08-19T12:58:41;29.90;75.90
17341;DHT22;8788;49.930;8.660;2022-08-19T13:01:10;30.00;70.70
17341;DHT22;8788;49.930;8.660;2022-08-19T13:03:38;30.00;70.80
17341;DHT22;8788;49.930;8.660;2022-08-19T13:06:06;30.10;71.80
17341;DHT22;8788;49.930;8.660;2022-08-19T13:08:33;30.30;71.40
17341;DHT22;8788;49.930;8.660;2022-08-19T13:11:09;30.40;69.90
17341;DHT22;8788;49.930;8.660;2022-08-19T13:13:38;30.40;69.90
17341;DHT22;8788;49.930;8.660;2022-08-19T13:16:08;30.60;69.90
17341;DHT22;8788;49.930;8.660;2022-08-19T13:18:38;30.60;69.80
17341;DHT22;8788;49.930;8.660;2022-08-19T13:21:08;30.70;69.90
17341;DHT22;8788;49.930;8.660;2022-08-19T13:23:36;30.70;69.10
17341;DHT22;8788;49.930;8.660;2022-08-19T13:26:04;30.70;66.30
17341;DHT22;8788;49.930;8.660;2022-08-19T13:28:34;30.70;65.50
17341;DHT22;8788;49.930;8.660;2022-08-19T13:31:19;30.70;65.60
17341;DHT22;8788;49.930;8.660;2022-08-19T13:34:04;30.90;66.70
17341;DHT22;8788;49.930;8.660;2022-08-19T13:36:32;31.00;66.90
17341;DHT22;8788;49.930;8.660;2022-08-19T13:38:59;31.10;66.80
17341;DHT22;8788;49.930;8.660;2022-08-19T13:41:27;31.10;66.40
17341;DHT22;8788;49.930;8.660;2022-08-19T13:43:55;30.90;66.30
17341;DHT22;8788;49.930;8.660;2022-08-19T13:46:23;30.70;66.00
17341;DHT22;8788;49.930;8.660;2022-08-19T13:48:50;30.60;66.80
17341;DHT22;8788;49.930;8.660;2022-08-19T13:51:17;30.70;66.40
17341;DHT22;8788;49.930;8.660;2022-08-19T13:53:44;30.70;63.80
17341;DHT22;8788;49.930;8.660;2022-08-19T13:56:13;30.60;64.80
17341;DHT22;8788;49.930;8.660;2022-08-19T13:58:41;30.70;64.90
17341;DHT22;8788;49.930;8.660;2022-08-19T14:01:10;30.80;64.60
17341;DHT22;8788;49.930;8.660;2022-08-19T14:03:38;30.70;64.60
17341;DHT22;8788;49.930;8.660;2022-08-19T14:06:05;30.50;64.20
17341;DHT22;8788;49.930;8.660;2022-08-19T14:08:32;30.50;65.10
17341;DHT22;8788;49.930;8.660;2022-08-19T14:11:00;30.70;65.00
17341;DHT22;8788;49.930;8.660;2022-08-19T14:13:27;30.80;65.00
17341;DHT22;8788;49.930;8.660;2022-08-19T14:15:54;30.90;65.00
17341;DHT22;8788;49.930;8.660;2022-08-19T14:18:22;30.90;64.40
17341;DHT22;8788;49.930;8.660;2022-08-19T14:20:50;30.90;62.30
17341;DHT22;8788;49.930;8.660;2022-08-19T14:23:18;30.80;62.20
17341;DHT22;8788;49.930;8.660;2022-08-19T14:25:45;30.80;62.50
17341;DHT22;8788;49.930;8.660;2022-08-19T14:28:13;30.90;63.50
17341;DHT22;8788;49.930;8.660;2022-08-19T14:30:40;31.00;62.50
17341;DHT22;8788;49.930;8.660;2022-08-19T14:33:07;31.00;61.60
17341;DHT22;8788;49.930;8.660;2022-08-19T14:35:37;31.00;62.70
17341;DHT22;8788;49.930;8.660;2022-08-19T14:38:05;31.10;60.00
17341;DHT22;8788;49.930;8.660;2022-08-19T14:40:33;31.10;60.70
17341;DHT22;8788;49.930;8.660;2022-08-19T14:43:02;31.00;60.10
17341;DHT22;8788;49.930;8.660;2022-08-19T14:45:31;30.90;60.60
17341;DHT22;8788;49.930;8.660;2022-08-19T14:47:59;30.90;59.80
17341;DHT22;8788;49.930;8.660;2022-08-19T14:50:26;30.80;59.90
17341;DHT22;8788;49.930;8.660;2022-08-19T14:53:00;30.60;59.70
17341;DHT22;8788;49.930;8.660;2022-08-19T14:55:28;30.50;59.80
17341;DHT22;8788;49.930;8.660;2022-08-19T14:57:56;30.40;59.80
17341;DHT22;8788;49.930;8.660;2022-08-19T15:00:23;30.40;60.30
17341;DHT22;8788;49.930;8.660;2022-08-19T15:02:51;30.40;59.50
17341;DHT22;8788;49.930;8.660;2022-08-19T15:05:19;30.40;60.00
17341;DHT22;8788;49.930;8.660;2022-08-19T15:07:46;30.50;60.00
17341;DHT22;8788;49.930;8.660;2022-08-19T15:10:15;30.50;60.00
17341;DHT22;8788;49.930;8.660;2022-08-19T15:12:42;30.50;60.10
17341;DHT22;8788;49.930;8.660;2022-08-19T15:15:11;30.50;59.50
17341;DHT22;8788;49.930;8.660;2022-08-19T15:17:39;30.50;59.30
17341;DHT22;8788;49.930;8.660;2022-08-19T15:20:08;30.50;59.40
17341;DHT22;8788;49.930;8.660;2022-08-19T15:22:36;30.50;58.90
17341;DHT22;8788;49.930;8.660;2022-08-19T15:25:04;30.50;59.10
17341;DHT22;8788;49.930;8.660;2022-08-19T15:27:33;30.50;58.80
17341;DHT22;8788;49.930;8.660;2022-08-19T15:30:02;30.50;59.10
17341;DHT22;8788;49.930;8.660;2022-08-19T15:32:30;30.50;58.50
17341;DHT22;8788;49.930;8.660;2022-08-19T15:34:57;30.50;58.80
17341;DHT22;8788;49.930;8.660;2022-08-19T15:37:24;30.50;58.50
17341;DHT22;8788;49.930;8.660;2022-08-19T15:39:51;30.40;57.70
17341;DHT22;8788;49.930;8.660;2022-08-19T15:42:18;30.30;57.30
17341;DHT22;8788;49.930;8.660;2022-08-19T15:44:47;30.30;58.00
17341;DHT22;8788;49.930;8.660;2022-08-19T15:47:14;30.20;57.80
17341;DHT22;8788;49.930;8.660;2022-08-19T15:49:43;30.20;58.00
17341;DHT22;8788;49.930;8.660;2022-08-19T15:52:11;30.20;58.30
17341;DHT22;8788;49.930;8.660;2022-08-19T15:54:38;30.20;58.10
17341;DHT22;8788;49.930;8.660;2022-08-19T15:57:05;30.20;58.00
17341;DHT22;8788;49.930;8.660;2022-08-19T15:59:51;30.20;58.20
17341;DHT22;8788;49.930;8.660;2022-08-19T16:02:36;30.20;58.60
17341;DHT22;8788;49.930;8.660;2022-08-19T16:05:23;30.20;59.30
17341;DHT22;8788;49.930;8.660;2022-08-19T16:08:08;30.20;58.80
17341;DHT22;8788;49.930;8.660;2022-08-19T16:10:35;30.20;58.80
17341;DHT22;8788;49.930;8.660;2022-08-19T16:13:03;30.10;59.00
17341;DHT22;8788;49.930;8.660;2022-08-19T16:15:33;30.10;59.00
17341;DHT22;8788;49.930;8.660;2022-08-19T16:18:00;30.10;59.00
17341;DHT22;8788;49.930;8.660;2022-08-19T16:20:29;30.10;58.50
17341;DHT22;8788;49.930;8.660;2022-08-19T16:22:57;30.10;58.80
17341;DHT22;8788;49.930;8.660;2022-08-19T16:25:25;30.10;58.80
17341;DHT22;8788;49.930;8.660;2022-08-19T16:27:54;30.10;58.30
17341;DHT22;8788;49.930;8.660;2022-08-19T16:30:21;30.10;58.60
17341;DHT22;8788;49.930;8.660;2022-08-19T16:32:49;30.10;58.70
17341;DHT22;8788;49.930;8.660;2022-08-19T16:35:16;30.10;58.50
17341;DHT22;8788;49.930;8.660;2022-08-19T16:37:43;30.10;58.60
17341;DHT22;8788;49.930;8.660;2022-08-19T16:40:11;30.10;58.60
17341;DHT22;8788;49.930;8.660;2022-08-19T16:42:38;30.10;57.80
17341;DHT22;8788;49.930;8.660;2022-08-19T16:45:06;30.10;58.10
17341;DHT22;8788;49.930;8.660;2022-08-19T16:47:34;30.10;58.10
17341;DHT22;8788;49.930;8.660;2022-08-19T16:50:04;30.00;58.00
17341;DHT22;8788;49.930;8.660;2022-08-19T16:52:32;30.00;57.90
17341;DHT22;8788;49.930;8.660;2022-08-19T16:55:01;29.90;58.20
17341;DHT22;8788;49.930;8.660;2022-08-19T16:57:28;29.90;58.30
17341;DHT22;8788;49.930;8.660;2022-08-19T16:59:56;29.90;58.60
17341;DHT22;8788;49.930;8.660;2022-08-19T17:02:24;29.90;58.70
17341;DHT22;8788;49.930;8.660;2022-08-19T17:04:52;29.90;58.60
17341;DHT22;8788;49.930;8.660;2022-08-19T17:07:21;29.80;58.70
17341;DHT22;8788;49.930;8.660;2022-08-19T17:09:48;29.80;58.90
17341;DHT22;8788;49.930;8.660;2022-08-19T17:12:17;29.80;59.10
17341;DHT22;8788;49.930;8.660;2022-08-19T17:14:44;29.80;59.30
17341;DHT22;8788;49.930;8.660;2022-08-19T17:17:11;29.80;59.50
17341;DHT22;8788;49.930;8.660;2022-08-19T17:19:39;29.70;59.60
17341;DHT22;8788;49.930;8.660;2022-08-19T17:22:07;29.70;59.70
17341;DHT22;8788;49.930;8.660;2022-08-19T17:24:36;29.70;59.60
17341;DHT22;8788;49.930;8.660;2022-08-19T17:27:03;29.60;59.80
17341;DHT22;8788;49.930;8.660;2022-08-19T17:29:31;29.60;60.00
17341;DHT22;8788;49.930;8.660;2022-08-19T17:31:59;29.50;60.60
17341;DHT22;8788;49.930;8.660;2022-08-19T17:34:26;29.50;60.00
17341;DHT22;8788;49.930;8.660;2022-08-19T17:36:53;29.50;60.00
17341;DHT22;8788;49.930;8.660;2022-08-19T17:39:22;29.40;60.70
17341;DHT22;8788;49.930;8.660;2022-08-19T17:41:51;29.30;59.70
17341;DHT22;8788;49.930;8.660;2022-08-19T17:44:18;29.30;59.90
17341;DHT22;8788;49.930;8.660;2022-08-19T17:46:45;29.20;59.70
17341;DHT22;8788;49.930;8.660;2022-08-19T17:49:13;29.20;59.70
17341;DHT22;8788;49.930;8.660;2022-08-19T17:51:42;29.10;59.90
17341;DHT22;8788;49.930;8.660;2022-08-19T17:54:12;29.10;59.90
17341;DHT22;8788;49.930;8.660;2022-08-19T17:56:40;29.00;59.70
17341;DHT22;8788;49.930;8.660;2022-08-19T17:59:09;28.90;59.60
17341;DHT22;8788;49.930;8.660;2022-08-19T18:01:36;28.80;59.70
17341;DHT22;8788;49.930;8.660;2022-08-19T18:04:04;28.80;59.60
17341;DHT22;8788;49.930;8.660;2022-08-19T18:06:32;28.70;59.60
17341;DHT22;8788;49.930;8.660;2022-08-19T18:09:02;28.70;59.70
17341;DHT22;8788;49.930;8.660;2022-08-19T18:11:29;28.70;59.70
17341;DHT22;8788;49.930;8.660;2022-08-19T18:13:57;28.60;59.60
17341;DHT22;8788;49.930;8.660;2022-08-19T18:16:25;28.50;59.60
17341;DHT22;8788;49.930;8.660;2022-08-19T18:18:52;28.50;59.80
17341;DHT22;8788;49.930;8.660;2022-08-19T18:21:20;28.40;60.00
17341;DHT22;8788;49.930;8.660;2022-08-19T18:23:54;28.40;60.40
17341;DHT22;8788;49.930;8.660;2022-08-19T18:26:22;28.30;60.60
17341;DHT22;8788;49.930;8.660;2022-08-19T18:28:49;28.20;60.80
17341;DHT22;8788;49.930;8.660;2022-08-19T18:31:17;28.20;61.40
17341;DHT22;8788;49.930;8.660;2022-08-19T18:33:45;28.10;61.50
17341;DHT22;8788;49.930;8.660;2022-08-19T18:36:17;28.10;61.80
17341;DHT22;8788;49.930;8.660;2022-08-19T18:38:44;28.00;61.90
17341;DHT22;8788;49.930;8.660;2022-08-19T18:41:28;27.90;62.20
17341;DHT22;8788;49.930;8.660;2022-08-19T18:44:13;27.80;62.60
17341;DHT22;8788;49.930;8.660;2022-08-19T18:47:03;27.80;62.90
17341;DHT22;8788;49.930;8.660;2022-08-19T18:49:49;27.80;63.20
17341;DHT22;8788;49.930;8.660;2022-08-19T18:52:17;27.70;63.40
17341;DHT22;8788;49.930;8.660;2022-08-19T18:54:44;27.60;63.60
17341;DHT22;8788;49.930;8.660;2022-08-19T18:57:12;27.50;63.60
17341;DHT22;8788;49.930;8.660;2022-08-19T18:59:39;27.40;63.90
17341;DHT22;8788;49.930;8.660;2022-08-19T19:02:08;27.40;63.90
17341;DHT22;8788;49.930;8.660;2022-08-19T19:04:37;27.30;64.00
17341;DHT22;8788;49.930;8.660;2022-08-19T19:07:06;27.30;64.10
17341;DHT22;8788;49.930;8.660;2022-08-19T19:09:34;27.20;64.10
17341;DHT22;8788;49.930;8.660;2022-08-19T19:12:03;27.10;64.90
17341;DHT22;8788;49.930;8.660;2022-08-19T19:14:34;27.10;64.10
17341;DHT22;8788;49.930;8.660;2022-08-19T19:17:04;27.00;64.10
17341;DHT22;8788;49.930;8.660;2022-08-19T19:19:32;27.00;64.10
17341;DHT22;8788;49.930;8.660;2022-08-19T19:22:01;26.90;64.20
17341;DHT22;8788;49.930;8.660;2022-08-19T19:24:31;26.90;64.50
17341;DHT22;8788;49.930;8.660;2022-08-19T19:27:01;26.80;64.50
17341;DHT22;8788;49.930;8.660;2022-08-19T19:29:30;26.80;64.70
17341;DHT22;8788;49.930;8.660;2022-08-19T19:32:00;26.80;64.80
17341;DHT22;8788;49.930;8.660;2022-08-19T19:34:28;26.80;65.00
17341;DHT22;8788;49.930;8.660;2022-08-19T19:36:55;26.70;65.00
17341;DHT22;8788;49.930;8.660;2022-08-19T19:39:22;26.70;65.00
17341;DHT22;8788;49.930;8.660;2022-08-19T19:41:52;26.70;65.00
17341;DHT22;8788;49.930;8.660;2022-08-19T19:44:19;26.60;65.10
17341;DHT22;8788;49.930;8.660;2022-08-19T19:46:46;26.60;65.40
17341;DHT22;8788;49.930;8.660;2022-08-19T19:49:13;26.50;65.50
17341;DHT22;8788;49.930;8.660;2022-08-19T19:51:41;26.50;65.60
17341;DHT22;8788;49.930;8.660;2022-08-19T19:54:10;26.40;65.80
17341;DHT22;8788;49.930;8.660;2022-08-19T19:56:38;26.40;65.90
17341;DHT22;8788;49.930;8.660;2022-08-19T19:59:11;26.40;66.10
17341;DHT22;8788;49.930;8.660;2022-08-19T20:01:38;26.30;66.30